createdAt,value
2022-09-28T00:01:24.591Z,11.70
2022-09-28T00:03:54.568Z,11.80
2022-09-28T00:06:24.537Z,11.80
2022-09-28T00:08:52.169Z,11.70
2022-09-28T00:11:20.981Z,10.30
2022-09-28T00:13:53.006Z,11.80
2022-09-28T00:16:22.621Z,12.00
2022-09-28T00:21:22.198Z,11.80
2022-09-28T00:24:11.340Z,12.30
2022-09-28T00:26:41.122Z,12.10
2022-09-28T00:29:15.510Z,12.00
2022-09-28T00:31:42.971Z,11.90
2022-09-28T00:39:09.050Z,12.30
2022-09-28T00:44:37.216Z,11.90
2022-09-28T00:47:28.725Z,11.80
2022-09-28T00:50:15.240Z,11.60
2022-09-28T00:55:14.837Z,12.10
2022-09-28T00:57:47.110Z,11.80
2022-09-28T01:02:42.966Z,11.60
2022-09-28T01:05:11.535Z,11.50
2022-09-28T01:10:06.452Z,11.60
2022-09-28T01:12:33.477Z,11.50
2022-09-28T01:15:02.409Z,11.60
2022-09-28T01:17:42.948Z,11.40
2022-09-28T01:20:10.102Z,11.10
2022-09-28T01:22:58.840Z,11.20
2022-09-28T01:25:45.546Z,10.80
2022-09-28T01:28:18.063Z,11.10
2022-09-28T01:31:13.838Z,10.80
2022-09-28T01:33:47.536Z,11.10
2022-09-28T01:36:50.013Z,10.90
2022-09-28T01:39:22.651Z,10.70
2022-09-28T01:41:53.416Z,10.60
2022-09-28T01:44:22.477Z,10.90
2022-09-28T01:46:50.695Z,10.30
2022-09-28T01:49:28.770Z,10.10
2022-09-28T01:52:07.879Z,10.40
2022-09-28T01:54:52.067Z,10.40
2022-09-28T01:57:24.718Z,10.70
2022-09-28T02:00:10.789Z,10.30
2022-09-28T02:02:55.736Z,10.40
2022-09-28T02:05:45.887Z,10.40
2022-09-28T02:08:29.663Z,10.70
2022-09-28T02:11:16.469Z,10.40
2022-09-28T02:13:52.881Z,10.30
2022-09-28T02:16:32.612Z,10.20
2022-09-28T02:18:59.574Z,10.20
2022-09-28T02:21:28.684Z,10.30
2022-09-28T02:24:06.768Z,10.20
2022-09-28T02:26:40.146Z,10.10
2022-09-28T02:29:07.166Z,10.20
2022-09-28T02:31:34.879Z,10.00
2022-09-28T02:36:29.851Z,9.60
2022-09-28T02:38:58.366Z,9.90
2022-09-28T02:41:46.388Z,9.90
2022-09-28T02:44:34.676Z,9.90
2022-09-28T02:47:29.933Z,9.90
2022-09-28T02:50:21.204Z,9.80
2022-09-28T02:53:07.925Z,9.90
2022-09-28T02:58:21.012Z,9.80
2022-09-28T03:01:14.243Z,9.70
2022-09-28T03:03:59.897Z,10.10
2022-09-28T03:06:43.936Z,9.90
2022-09-28T03:09:32.090Z,9.50
2022-09-28T03:12:04.930Z,9.50
2022-09-28T03:14:31.821Z,9.90
2022-09-28T03:16:58.675Z,10.00
2022-09-28T03:19:30.563Z,9.30
2022-09-28T03:21:57.446Z,9.70
2022-09-28T03:26:51.631Z,9.80
2022-09-28T03:36:43.383Z,9.70
2022-09-28T03:39:10.293Z,9.80
2022-09-28T03:41:37.164Z,9.60
2022-09-28T03:44:04.093Z,9.70
2022-09-28T03:51:26.754Z,9.70
2022-09-28T04:01:18.729Z,9.60
2022-09-28T04:03:46.415Z,10.30
2022-09-28T04:06:14.383Z,10.10
2022-09-28T04:16:05.517Z,10.00
2022-09-28T04:18:33.519Z,10.00
2022-09-28T04:21:09.085Z,9.50
2022-09-28T04:23:37.543Z,10.10
2022-09-28T04:26:06.423Z,10.30
2022-09-28T04:28:52.530Z,9.70
2022-09-28T04:31:22.586Z,9.70
2022-09-28T04:33:49.778Z,9.50
2022-09-28T04:36:17.953Z,9.80
2022-09-28T04:38:53.525Z,10.30
2022-09-28T04:41:24.471Z,9.70
2022-09-28T04:43:51.495Z,9.60
2022-09-28T04:46:19.041Z,9.70
2022-09-28T04:48:46.221Z,10.50
2022-09-28T04:56:12.720Z,10.00
2022-09-28T04:58:40.559Z,10.00
2022-09-28T05:01:13.876Z,10.10
2022-09-28T05:06:08.802Z,10.40
2022-09-28T05:08:35.822Z,10.20
2022-09-28T05:11:07.704Z,10.30
2022-09-28T05:13:41.766Z,10.40
2022-09-28T05:16:10.135Z,9.80
2022-09-28T05:18:37.159Z,10.30
2022-09-28T05:21:04.827Z,10.10
2022-09-28T05:26:02.401Z,10.30
2022-09-28T05:28:31.346Z,10.50
2022-09-28T05:31:02.988Z,10.10
2022-09-28T05:33:31.822Z,10.00
2022-09-28T05:36:01.270Z,9.80
2022-09-28T05:38:29.872Z,10.00
2022-09-28T05:40:57.076Z,10.20
2022-09-28T05:45:55.367Z,10.10
2022-09-28T05:48:23.142Z,9.90
2022-09-28T05:50:53.580Z,10.10
2022-09-28T05:53:20.832Z,10.40
2022-09-28T05:55:48.225Z,10.10
2022-09-28T05:58:15.254Z,9.90
2022-09-28T06:03:13.147Z,10.60
2022-09-28T06:05:40.385Z,10.10
2022-09-28T06:08:10.389Z,10.40
2022-09-28T06:10:37.779Z,10.60
2022-09-28T06:13:05.218Z,10.20
2022-09-28T06:15:33.753Z,10.50
2022-09-28T06:18:09.968Z,10.90
2022-09-28T06:20:41.316Z,10.50
2022-09-28T06:23:09.543Z,10.70
2022-09-28T06:25:36.625Z,11.10
2022-09-28T06:28:06.811Z,10.90
2022-09-28T06:30:38.511Z,11.20
2022-09-28T06:33:07.926Z,11.20
2022-09-28T06:35:35.610Z,11.00
2022-09-28T06:38:03.928Z,11.40
2022-09-28T06:40:31.268Z,11.90
2022-09-28T06:43:10.279Z,11.80
2022-09-28T06:45:38.603Z,12.50
2022-09-28T06:48:06.296Z,12.20
2022-09-28T06:50:42.438Z,12.50
2022-09-28T06:53:12.314Z,13.40
2022-09-28T06:55:40.431Z,12.90
2022-09-28T06:58:10.744Z,12.30
2022-09-28T07:00:39.080Z,12.50
2022-09-28T07:03:17.191Z,12.70
2022-09-28T07:05:46.503Z,13.00
2022-09-28T07:08:14.659Z,12.40
2022-09-28T07:10:44.145Z,12.20
2022-09-28T07:13:31.259Z,12.70
2022-09-28T07:16:02.017Z,12.10
2022-09-28T07:25:54.815Z,12.80
2022-09-28T07:33:17.624Z,12.10
2022-09-28T07:35:55.345Z,12.10
2022-09-28T07:41:08.837Z,12.00
2022-09-28T07:48:37.987Z,12.00
2022-09-28T07:51:06.168Z,11.60
2022-09-28T07:53:33.423Z,12.00
2022-09-28T07:56:07.318Z,12.00
2022-09-28T07:58:36.303Z,11.20
2022-09-28T08:01:09.278Z,11.60
2022-09-28T08:06:09.943Z,11.60
2022-09-28T08:08:37.933Z,12.40
2022-09-28T08:11:06.734Z,13.00
2022-09-28T08:16:01.831Z,13.50
2022-09-28T08:18:28.853Z,13.90
2022-09-28T08:21:14.128Z,14.30
2022-09-28T08:23:41.497Z,14.70
2022-09-28T08:26:11.070Z,14.80
2022-09-28T08:36:06.216Z,13.30
2022-09-28T08:38:33.372Z,13.00
2022-09-28T08:44:14.371Z,13.30
2022-09-28T08:46:46.695Z,14.80
2022-09-28T08:49:30.506Z,14.50
2022-09-28T08:52:10.833Z,14.90
2022-09-28T08:54:49.149Z,15.80
2022-09-28T08:57:21.051Z,16.50
2022-09-28T08:59:59.947Z,17.40
2022-09-28T09:02:33.693Z,16.60
2022-09-28T09:05:04.824Z,16.90
2022-09-28T09:07:40.290Z,16.70
2022-09-28T09:10:35.387Z,16.40
2022-09-28T09:13:20.968Z,15.90
2022-09-28T09:15:57.642Z,15.30
2022-09-28T09:18:41.589Z,14.90
2022-09-28T09:21:15.531Z,14.00
2022-09-28T09:23:56.640Z,13.80
2022-09-28T09:26:41.888Z,13.60
2022-09-28T09:29:31.379Z,14.20
2022-09-28T09:32:22.673Z,14.60
2022-09-28T09:35:29.042Z,15.10
2022-09-28T09:38:28.603Z,15.60
2022-09-28T09:41:07.280Z,15.20
2022-09-28T09:44:01.531Z,15.10
2022-09-28T09:46:42.825Z,15.80
2022-09-28T09:49:36.255Z,16.40
2022-09-28T09:52:24.514Z,15.40
2022-09-28T09:54:54.543Z,15.10
2022-09-28T09:57:30.489Z,14.90
2022-09-28T10:00:00.475Z,15.20
2022-09-28T10:05:13.059Z,16.60
2022-09-28T10:07:58.365Z,17.40
2022-09-28T10:10:36.895Z,18.40
2022-09-28T10:13:04.853Z,18.80
2022-09-28T10:15:33.639Z,17.50
2022-09-28T10:18:10.423Z,16.20
2022-09-28T10:20:42.841Z,16.20
2022-09-28T10:23:22.808Z,15.70
2022-09-28T10:25:52.917Z,15.20
2022-09-28T10:28:29.956Z,14.20
2022-09-28T10:33:29.379Z,13.50
2022-09-28T10:35:56.887Z,13.50
2022-09-28T10:38:24.641Z,13.00
2022-09-28T10:40:56.674Z,13.00
2022-09-28T10:43:31.487Z,13.70
2022-09-28T10:46:10.540Z,13.50
2022-09-28T10:48:52.153Z,13.70
2022-09-28T10:54:02.303Z,13.70
2022-09-28T10:56:37.179Z,12.90
2022-09-28T10:59:28.873Z,13.60
2022-09-28T11:02:12.753Z,14.60
2022-09-28T11:04:42.869Z,14.70
2022-09-28T11:07:24.771Z,14.90
2022-09-28T11:09:54.650Z,14.80
2022-09-28T11:12:24.856Z,14.60
2022-09-28T11:15:17.543Z,16.10
2022-09-28T11:20:28.347Z,19.00
2022-09-28T11:23:00.537Z,20.40
2022-09-28T11:25:30.606Z,20.70
2022-09-28T11:28:00.754Z,20.50
2022-09-28T11:30:51.439Z,20.30
2022-09-28T11:33:39.985Z,21.40
2022-09-28T11:36:17.216Z,19.60
2022-09-28T11:39:18.284Z,18.30
2022-09-28T11:41:54.140Z,17.70
2022-09-28T11:44:46.856Z,17.10
2022-09-28T11:47:37.655Z,16.50
2022-09-28T11:55:26.290Z,15.50
2022-09-28T11:58:24.723Z,15.00
2022-09-28T12:00:59.593Z,14.80
2022-09-28T12:03:46.776Z,15.00
2022-09-28T12:06:18.941Z,16.00
2022-09-28T12:08:58.438Z,17.90
2022-09-28T12:11:36.042Z,18.90
2022-09-28T12:14:06.826Z,17.90
2022-09-28T12:17:07.726Z,17.20
2022-09-28T12:19:59.483Z,16.90
2022-09-28T12:22:35.062Z,15.60
2022-09-28T12:25:05.191Z,15.80
2022-09-28T12:27:45.178Z,15.50
2022-09-28T12:30:26.140Z,14.80
2022-09-28T12:33:04.648Z,15.10
2022-09-28T12:36:03.643Z,14.60
2022-09-28T12:39:18.910Z,14.50
2022-09-28T12:42:36.540Z,15.20
2022-09-28T12:45:03.382Z,16.80
2022-09-28T12:47:33.008Z,16.50
2022-09-28T12:50:38.525Z,17.70
2022-09-28T12:53:46.038Z,18.70
2022-09-28T12:56:37.079Z,19.10
2022-09-28T12:59:27.840Z,19.00
2022-09-28T13:02:31.274Z,19.10
2022-09-28T13:05:23.124Z,19.60
2022-09-28T13:08:20.139Z,19.30
2022-09-28T13:11:07.671Z,19.50
2022-09-28T13:14:16.893Z,19.10
2022-09-28T13:22:03.019Z,17.70
2022-09-28T13:24:35.400Z,17.70
2022-09-28T13:27:10.428Z,16.70
2022-09-28T13:32:12.850Z,16.30
2022-09-28T13:34:40.026Z,16.10
2022-09-28T13:37:20.298Z,16.10
2022-09-28T13:39:55.193Z,15.70
2022-09-28T13:42:47.540Z,16.10
2022-09-28T13:45:20.126Z,17.00
2022-09-28T13:48:16.149Z,17.20
2022-09-28T13:51:06.067Z,17.00
2022-09-28T13:53:39.588Z,17.00
2022-09-28T13:56:24.614Z,17.40
2022-09-28T13:59:18.976Z,17.00
2022-09-28T14:02:07.057Z,16.40
2022-09-28T14:04:54.177Z,16.40
2022-09-28T14:07:41.226Z,16.20
2022-09-28T14:10:21.372Z,16.00
2022-09-28T14:12:51.443Z,16.00
2022-09-28T14:15:30.264Z,16.30
2022-09-28T14:18:16.380Z,16.40
2022-09-28T14:21:03.605Z,17.00
2022-09-28T14:23:55.157Z,17.30
2022-09-28T14:26:41.672Z,17.20
2022-09-28T14:31:43.306Z,17.50
2022-09-28T14:34:24.032Z,17.20
2022-09-28T14:37:09.887Z,17.60
2022-09-28T14:39:56.983Z,17.70
2022-09-28T14:42:26.035Z,17.40
2022-09-28T14:45:07.820Z,17.40
2022-09-28T14:47:37.695Z,17.40
2022-09-28T14:50:24.678Z,17.80
2022-09-28T14:52:54.435Z,17.80
2022-09-28T14:55:29.439Z,17.80
2022-09-28T14:57:59.411Z,17.70
2022-09-28T15:00:30.417Z,18.20
2022-09-28T15:03:02.667Z,18.00
2022-09-28T15:05:44.193Z,18.20
2022-09-28T15:08:12.198Z,18.70
2022-09-28T15:10:50.286Z,18.60
2022-09-28T15:13:28.831Z,17.80
2022-09-28T15:16:03.864Z,18.10
2022-09-28T15:18:43.867Z,18.10
2022-09-28T15:21:12.296Z,17.80
2022-09-28T15:23:41.834Z,18.20
2022-09-28T15:26:29.022Z,17.60
2022-09-28T15:28:56.125Z,17.60
2022-09-28T15:31:26.428Z,17.50
2022-09-28T15:36:46.510Z,17.10
2022-09-28T15:41:43.239Z,16.80
2022-09-28T15:44:13.072Z,17.20
2022-09-28T15:46:48.128Z,16.40
2022-09-28T15:49:38.898Z,15.60
2022-09-28T15:52:06.463Z,15.10
2022-09-28T15:54:44.467Z,15.40
2022-09-28T15:57:38.995Z,15.40
2022-09-28T16:00:29.046Z,14.60
2022-09-28T16:03:05.650Z,15.00
2022-09-28T16:05:57.475Z,14.40
2022-09-28T16:08:40.010Z,14.10
2022-09-28T16:11:32.971Z,14.50
2022-09-28T16:14:07.485Z,14.00
2022-09-28T16:16:46.892Z,14.00
2022-09-28T16:19:28.418Z,14.10
2022-09-28T16:21:57.514Z,14.00
2022-09-28T16:24:33.299Z,14.00
2022-09-28T16:27:07.212Z,14.20
2022-09-28T16:29:42.852Z,14.30
2022-09-28T16:32:38.467Z,16.60
2022-09-28T16:35:11.009Z,13.90
2022-09-28T16:37:41.006Z,14.20
2022-09-28T16:40:11.632Z,14.00
2022-09-28T16:42:40.251Z,14.10
2022-09-28T16:45:09.699Z,13.80
2022-09-28T16:47:36.759Z,13.50
2022-09-28T16:50:07.406Z,13.90
2022-09-28T16:55:40.131Z,13.70
2022-09-28T17:08:02.375Z,12.70
2022-09-28T17:11:14.017Z,13.00
2022-09-28T17:13:42.609Z,13.00
2022-09-28T17:16:18.054Z,12.90
2022-09-28T17:18:46.289Z,13.30
2022-09-28T17:21:16.810Z,13.10
2022-09-28T17:23:45.139Z,13.10
2022-09-28T17:26:30.834Z,12.90
2022-09-28T17:29:08.746Z,12.80
2022-09-28T17:38:58.385Z,12.80
2022-09-28T17:46:28.837Z,12.70
2022-09-28T17:48:59.658Z,12.70
2022-09-28T17:51:32.588Z,12.50
2022-09-28T17:54:01.232Z,12.50
2022-09-28T17:56:32.753Z,12.90
2022-09-28T17:59:03.275Z,12.60
2022-09-28T18:01:34.521Z,12.50
2022-09-28T18:04:06.026Z,12.60
2022-09-28T18:06:37.380Z,12.20
2022-09-28T18:09:05.399Z,12.70
2022-09-28T18:11:33.453Z,12.80
2022-09-28T18:14:00.944Z,12.80
2022-09-28T18:16:28.843Z,12.70
2022-09-28T18:23:50.697Z,11.60
2022-09-28T18:28:47.138Z,11.70
2022-09-28T18:31:15.813Z,11.50
2022-09-28T18:36:10.800Z,11.00
2022-09-28T18:38:38.606Z,11.20
2022-09-28T18:41:17.094Z,10.60
2022-09-28T18:43:49.241Z,10.90
2022-09-28T18:48:44.737Z,11.40
2022-09-28T18:51:12.423Z,10.70
2022-09-28T18:53:40.426Z,10.90
2022-09-28T18:56:13.194Z,10.90
2022-09-28T18:58:42.050Z,10.80
2022-09-28T19:01:33.837Z,10.80
2022-09-28T19:04:02.288Z,11.00
2022-09-28T19:06:30.289Z,10.30
2022-09-28T19:11:25.757Z,10.60
2022-09-28T19:13:54.490Z,10.90
2022-09-28T19:16:30.278Z,10.30
2022-09-28T19:18:58.478Z,10.70
2022-09-28T19:21:25.605Z,10.80
2022-09-28T19:23:55.137Z,10.70
2022-09-28T19:26:24.644Z,10.50
2022-09-28T19:31:19.636Z,10.40
2022-09-28T19:36:18.508Z,10.60
2022-09-28T19:38:46.329Z,10.80
2022-09-28T19:41:39.342Z,10.80
2022-09-28T19:44:26.890Z,10.70
2022-09-28T19:47:08.862Z,10.70
2022-09-28T19:49:38.173Z,11.00
2022-09-28T19:52:15.635Z,11.50
2022-09-28T19:54:57.620Z,11.10
2022-09-28T19:57:29.343Z,10.90
2022-09-28T20:04:56.637Z,11.10
2022-09-28T20:07:23.571Z,11.00
2022-09-28T20:09:51.803Z,10.60
2022-09-28T20:12:18.971Z,11.20
2022-09-28T20:14:45.838Z,10.90
2022-09-28T20:17:12.956Z,11.60
2022-09-28T20:29:34.819Z,10.90
2022-09-28T20:32:03.916Z,11.10
2022-09-28T20:34:31.163Z,11.10
2022-09-28T20:36:58.232Z,11.00
2022-09-28T20:39:25.161Z,10.80
2022-09-28T20:41:51.999Z,11.00
2022-09-28T20:46:50.210Z,11.10
2022-09-28T20:49:17.054Z,11.20
2022-09-28T20:51:43.899Z,11.10
2022-09-28T20:54:10.843Z,11.30
2022-09-28T20:56:38.884Z,11.40
2022-09-28T20:59:11.254Z,11.20
2022-09-28T21:01:38.556Z,10.80
2022-09-28T21:04:07.420Z,12.40
2022-09-28T21:06:39.605Z,11.30
2022-09-28T21:09:08.257Z,11.30
2022-09-28T21:11:35.817Z,11.20
2022-09-28T21:14:04.644Z,11.10
2022-09-28T21:16:33.066Z,10.70
2022-09-28T21:18:59.987Z,10.90
2022-09-28T21:21:27.683Z,10.80
2022-09-28T21:23:58.159Z,11.00
2022-09-28T21:26:28.086Z,10.80
2022-09-28T21:29:06.160Z,10.80
2022-09-28T21:31:38.807Z,10.70
2022-09-28T21:36:33.817Z,10.50
2022-09-28T21:41:29.163Z,10.70
2022-09-28T21:43:56.372Z,10.90
2022-09-28T21:46:23.456Z,11.00
2022-09-28T21:48:54.009Z,10.60
2022-09-28T21:56:16.563Z,11.20
2022-09-28T21:58:43.376Z,10.70
2022-09-28T22:01:29.192Z,10.60
2022-09-28T22:03:57.001Z,10.70
2022-09-28T22:06:28.042Z,10.90
2022-09-28T22:08:55.312Z,11.10
2022-09-28T22:11:25.047Z,11.00
2022-09-28T22:13:54.435Z,10.80
2022-09-28T22:16:23.708Z,11.30
2022-09-28T22:21:24.283Z,10.90
2022-09-28T22:26:24.876Z,10.90
2022-09-28T22:28:52.708Z,10.90
2022-09-28T22:31:22.694Z,11.00
2022-09-28T22:33:50.344Z,11.10
2022-09-28T22:36:17.613Z,10.90
2022-09-28T22:38:45.036Z,11.00
2022-09-28T22:41:13.702Z,10.80
2022-09-28T22:46:12.975Z,10.80
2022-09-28T22:48:40.066Z,10.40
2022-09-28T22:51:07.419Z,10.80
2022-09-28T22:53:35.424Z,10.70
2022-09-28T22:56:06.457Z,10.30
2022-09-28T22:58:34.229Z,10.30
2022-09-28T23:01:13.083Z,10.40
2022-09-28T23:06:08.161Z,10.50
2022-09-28T23:08:35.815Z,10.60
2022-09-28T23:11:03.497Z,10.70
2022-09-28T23:16:01.408Z,10.70
2022-09-28T23:18:30.962Z,10.90
2022-09-28T23:21:00.060Z,11.00
2022-09-28T23:23:27.806Z,10.90
2022-09-28T23:25:55.469Z,10.40
2022-09-28T23:28:24.324Z,10.80
2022-09-28T23:30:51.793Z,10.70
2022-09-28T23:33:20.175Z,11.00
2022-09-28T23:35:47.283Z,10.60
2022-09-28T23:38:15.917Z,10.30
2022-09-28T23:40:42.834Z,10.70
2022-09-28T23:55:26.150Z,10.50
2022-09-28T23:57:55.624Z,10.90
